Time;durP1;ratioP1;P1;durP2;ratioP2;P2;SDS_P1;SDS_P2;PMS_P1;PMS_P2;Temp;Humidity;BMP_temperature;BMP_pressure;BME280_temperature;BME280_humidity;BME280_pressure;Samples;Min_cycle;Max_cycle;Signal;HPM_P1;HPM_P2
2023/04/30 00:00:56;;;;;;;7.85;4.13;;;;;;;10.18;87.02;99746.31;6247597;28;20072;-71
2023/04/30 00:03:57;;;;;;;6.85;3.83;;;;;;;10.15;87.43;99737.84;6248314;28;20050;-75
2023/04/30 00:06:58;;;;;;;7.97;3.55;;;;;;;10.12;88.17;99735.47;6248991;28;20050;-71
2023/04/30 00:09:58;;;;;;;7.55;4.20;;;;;;;10.08;88.35;99734.81;6247474;28;20049;-70
2023/04/30 00:12:59;;;;;;;9.65;4.22;;;;;;;10.07;88.49;99739.19;6247328;28;20057;-70
2023/04/30 00:16:00;;;;;;;7.10;3.95;;;;;;;10.13;87.60;99732.75;6248055;28;20076;-75
2023/04/30 00:19:01;;;;;;;8.73;4.28;;;;;;;10.26;89.27;99741.44;6248382;28;20046;-75
2023/04/30 00:22:02;;;;;;;8.82;3.75;;;;;;;10.28;90.00;99736.97;6247878;28;20052;-74
2023/04/30 00:25:06;;;;;;;6.45;3.55;;;;;;;10.34;92.05;99732.34;6247599;28;20053;-71
2023/04/30 00:28:06;;;;;;;9.55;4.25;;;;;;;10.33;92.95;99733.25;6248077;28;20053;-71
2023/04/30 00:31:08;;;;;;;9.13;4.55;;;;;;;10.38;92.46;99739.84;6246837;28;20050;-71
2023/04/30 00:34:09;;;;;;;5.72;3.53;;;;;;;10.37;90.87;99732.13;6246841;28;20060;-71
2023/04/30 00:37:09;;;;;;;7.03;3.88;;;;;;;10.42;89.79;99723.06;6248157;28;20136;-71
2023/04/30 00:40:11;;;;;;;5.55;3.63;;;;;;;10.40;90.75;99721.50;6248170;28;20070;-74
2023/04/30 00:43:12;;;;;;;4.70;3.25;;;;;;;10.39;90.48;99720.66;6248970;28;20049;-75
2023/04/30 00:46:12;;;;;;;5.28;3.35;;;;;;;10.32;90.48;99721.16;6247202;28;20088;-74
2023/04/30 00:49:13;;;;;;;7.90;4.10;;;;;;;10.20;90.58;99720.16;6247015;28;20536;-75
2023/04/30 00:52:14;;;;;;;6.05;3.70;;;;;;;10.17;91.90;99717.72;6246925;28;20513;-75
2023/04/30 00:55:16;;;;;;;6.72;3.85;;;;;;;10.15;91.89;99719.59;6246983;28;20045;-75
2023/04/30 00:58:17;;;;;;;6.37;3.57;;;;;;;10.14;91.92;99712.72;6247028;28;20464;-75
2023/04/30 01:01:20;;;;;;;5.00;3.88;;;;;;;10.17;92.56;99709.91;6248172;28;20103;-75
2023/04/30 01:04:21;;;;;;;5.30;3.80;;;;;;;10.16;92.57;99710.84;6248072;28;20069;-75
2023/04/30 01:07:23;;;;;;;5.85;3.75;;;;;;;10.11;92.04;99718.13;6246280;28;20440;-72
2023/04/30 01:10:47;;;;;;;6.75;3.80;;;;;;;10.06;91.99;99714.03;6247113;28;20045;-71
2023/04/30 01:14:03;;;;;;;5.72;3.75;;;;;;;10.00;93.79;99714.44;6263535;28;20056;-71
2023/04/30 01:17:22;;;;;;;6.32;4.10;;;;;;;10.00;94.81;99718.81;6246210;28;20045;-74
2023/04/30 01:20:25;;;;;;;6.88;3.85;;;;;;;9.89;94.99;99716.91;6246474;28;20508;-75
2023/04/30 01:23:34;;;;;;;6.72;3.85;;;;;;;9.84;95.64;99721.56;6247677;28;20050;-75
2023/04/30 01:26:41;;;;;;;4.68;3.30;;;;;;;9.81;95.53;99724.38;6245747;28;20054;-71
2023/04/30 01:29:42;;;;;;;7.32;3.28;;;;;;;9.61;96.05;99725.63;6245731;28;20055;-71
2023/04/30 01:32:43;;;;;;;8.80;4.15;;;;;;;9.60;96.26;99737.81;6270575;28;20048;-75
2023/04/30 01:36:14;;;;;;;6.28;3.83;;;;;;;9.55;96.29;99733.81;6271397;28;20187;-75
2023/04/30 01:39:47;;;;;;;4.50;3.35;;;;;;;9.52;96.50;99737.44;6272384;28;20057;-75
2023/04/30 01:43:05;;;;;;;4.83;3.40;;;;;;;9.55;93.79;99729.44;6270907;28;20568;-75
2023/04/30 01:46:09;;;;;;;5.22;3.47;;;;;;;9.56;93.14;99736.31;6270883;28;20554;-75
2023/04/30 01:49:19;;;;;;;6.80;4.05;;;;;;;9.57;92.95;99732.78;6270649;28;20076;-75
2023/04/30 01:52:33;;;;;;;6.40;3.90;;;;;;;9.56;92.65;99741.53;6270846;28;20076;-74
2023/04/30 01:55:40;;;;;;;5.35;3.53;;;;;;;9.57;93.81;99739.75;6271694;28;20094;-74
2023/04/30 01:58:41;;;;;;;5.85;4.10;;;;;;;9.60;94.48;99745.63;6270722;28;20056;-75
2023/04/30 02:01:42;;;;;;;5.20;3.42;;;;;;;9.73;94.36;99737.03;6271762;28;20397;-75
2023/04/30 02:04:43;;;;;;;5.95;3.53;;;;;;;9.82;95.31;99734.72;6270673;28;20057;-74
2023/04/30 02:07:49;;;;;;;6.53;3.80;;;;;;;9.93;98.19;99727.97;6270967;28;20500;-75
2023/04/30 02:10:50;;;;;;;4.60;3.78;;;;;;;10.01;99.87;99725.72;6270536;28;20464;-75
2023/04/30 02:13:51;;;;;;;4.88;3.45;;;;;;;10.01;98.93;99717.91;6270835;28;20056;-75
2023/04/30 02:16:52;;;;;;;5.20;3.42;;;;;;;10.08;99.87;99729.59;6271051;28;20053;-75
2023/04/30 02:19:53;;;;;;;5.50;3.78;;;;;;;10.04;99.71;99726.34;6271690;28;20468;-75
2023/04/30 02:22:54;;;;;;;6.00;4.30;;;;;;;10.00;97.80;99722.25;6271979;28;20045;-75
2023/04/30 02:25:54;;;;;;;5.53;4.03;;;;;;;9.93;97.49;99713.19;6270235;28;20049;-74
2023/04/30 02:28:55;;;;;;;5.30;3.60;;;;;;;9.87;97.46;99717.00;6271743;28;20106;-75
2023/04/30 02:32:00;;;;;;;6.07;4.13;;;;;;;9.83;97.17;99732.94;6276342;28;20045;-75
2023/04/30 02:35:01;;;;;;;6.30;3.95;;;;;;;9.79;96.54;99731.44;6276412;28;20477;-75
2023/04/30 02:38:02;;;;;;;13.70;4.25;;;;;;;9.75;96.18;99737.78;6276416;28;20049;-74
2023/04/30 02:41:03;;;;;;;6.18;4.38;;;;;;;9.67;94.63;99731.28;6275025;28;20622;-75
2023/04/30 02:44:04;;;;;;;6.85;4.32;;;;;;;9.62;94.25;99733.34;6276622;28;20367;-75
2023/04/30 02:47:04;;;;;;;7.78;4.60;;;;;;;9.58;95.35;99734.47;6275001;28;20099;-75
2023/04/30 02:50:06;;;;;;;6.25;3.95;;;;;;;9.61;95.56;99738.63;6275148;28;20473;-75
2023/04/30 02:53:07;;;;;;;7.05;4.35;;;;;;;9.63;95.73;99742.81;6276311;28;20052;-75
2023/04/30 02:56:08;;;;;;;7.22;4.40;;;;;;;9.58;95.64;99739.66;6274553;28;20056;-75
2023/04/30 02:59:09;;;;;;;8.52;4.45;;;;;;;9.45;97.91;99743.94;6275720;28;20064;-75
2023/04/30 03:02:11;;;;;;;5.88;4.13;;;;;;;9.35;97.93;99748.91;6274370;28;20049;-75
2023/04/30 03:05:14;;;;;;;7.03;4.65;;;;;;;9.28;98.56;99743.19;6275407;28;20558;-75
2023/04/30 03:08:15;;;;;;;6.45;3.95;;;;;;;9.25;98.98;99739.97;6275584;28;20049;-75
2023/04/30 03:11:18;;;;;;;7.10;4.50;;;;;;;9.24;98.52;99746.91;6274575;28;20056;-75
2023/04/30 03:14:19;;;;;;;7.38;4.50;;;;;;;9.17;98.23;99747.41;6275913;28;20063;-75
2023/04/30 03:17:20;;;;;;;5.88;4.22;;;;;;;9.08;98.15;99752.22;6275502;28;20064;-75
2023/04/30 03:20:21;;;;;;;8.00;4.53;;;;;;;8.99;99.39;99750.16;6275043;28;20041;-75
2023/04/30 03:23:22;;;;;;;6.90;4.28;;;;;;;9.00;99.55;99753.63;6274002;28;20102;-75
2023/04/30 03:26:23;;;;;;;6.93;4.45;;;;;;;8.86;100.00;99751.81;6275588;28;20772;-75
2023/04/30 03:29:25;;;;;;;10.52;4.95;;;;;;;8.85;100.00;99745.78;6273125;28;20056;-70
2023/04/30 03:32:26;;;;;;;7.50;4.43;;;;;;;8.82;100.00;99758.97;6274299;28;20056;-70
2023/04/30 03:35:26;;;;;;;12.90;4.63;;;;;;;8.73;100.00;99763.84;6273012;28;20053;-71
2023/04/30 03:38:27;;;;;;;8.63;4.82;;;;;;;8.70;100.00;99764.03;6274030;28;20049;-70
2023/04/30 03:41:28;;;;;;;7.47;4.10;;;;;;;8.60;100.00;99755.94;6272130;28;20063;-70
2023/04/30 03:44:29;;;;;;;5.95;4.20;;;;;;;8.58;100.00;99753.41;6274236;28;20048;-70
2023/04/30 03:47:30;;;;;;;7.65;4.32;;;;;;;8.58;100.00;99760.38;6273758;28;20064;-70
2023/04/30 03:50:31;;;;;;;8.93;5.25;;;;;;;8.56;100.00;99759.63;6272473;28;20541;-70
2023/04/30 03:53:32;;;;;;;9.20;5.65;;;;;;;8.61;100.00;99768.03;6272678;28;20053;-70
2023/04/30 03:56:35;;;;;;;10.02;6.28;;;;;;;8.62;100.00;99764.47;6272474;28;20218;-70
2023/04/30 03:59:37;;;;;;;7.40;4.65;;;;;;;8.65;100.00;99759.13;6273773;28;20135;-70
2023/04/30 04:02:38;;;;;;;10.00;5.75;;;;;;;8.67;100.00;99765.06;6273423;28;20071;-70
2023/04/30 04:05:39;;;;;;;7.05;4.32;;;;;;;8.72;100.00;99768.22;6272477;28;20088;-70
2023/04/30 04:08:42;;;;;;;7.15;4.38;;;;;;;8.74;100.00;99773.34;6273448;28;20088;-70
2023/04/30 04:11:44;;;;;;;10.40;5.18;;;;;;;8.79;100.00;99781.72;6273592;28;20040;-70
2023/04/30 04:14:45;;;;;;;8.43;5.07;;;;;;;8.80;100.00;99778.19;6273206;28;20136;-70
2023/04/30 04:17:46;;;;;;;6.85;4.88;;;;;;;8.91;100.00;99788.81;6272313;28;20049;-71
2023/04/30 04:20:47;;;;;;;9.10;5.60;;;;;;;8.97;100.00;99780.63;6273145;28;20124;-71
2023/04/30 04:23:48;;;;;;;7.78;4.93;;;;;;;9.00;100.00;99788.28;6273238;28;20091;-71
2023/04/30 04:26:49;;;;;;;10.45;5.50;;;;;;;9.11;100.00;99794.63;6271746;28;20052;-71
2023/04/30 04:29:50;;;;;;;9.40;5.47;;;;;;;9.26;100.00;99802.34;6272656;28;20107;-71
2023/04/30 04:32:52;;;;;;;8.18;5.65;;;;;;;9.45;100.00;99798.63;6271673;28;20079;-71
2023/04/30 04:35:53;;;;;;;8.82;5.32;;;;;;;9.72;100.00;99795.28;6272798;28;20056;-71
2023/04/30 04:38:56;;;;;;;13.77;6.10;;;;;;;9.88;100.00;99798.59;6271650;28;20049;-71
2023/04/30 04:41:57;;;;;;;11.65;5.63;;;;;;;10.06;100.00;99802.69;6272232;28;20052;-71
2023/04/30 04:44:58;;;;;;;9.48;5.32;;;;;;;10.23;99.04;99800.78;6272817;28;20542;-71
2023/04/30 04:48:00;;;;;;;11.27;5.45;;;;;;;10.35;97.77;99804.41;6271329;28;20049;-71
2023/04/30 04:51:02;;;;;;;10.30;5.25;;;;;;;10.45;98.21;99808.09;6271790;28;20048;-70
2023/04/30 04:54:05;;;;;;;7.38;4.70;;;;;;;10.57;97.66;99806.47;6272472;28;20045;-71
2023/04/30 04:57:06;;;;;;;8.90;5.85;;;;;;;10.68;97.88;99809.22;6271403;28;20053;-71
2023/04/30 05:00:08;;;;;;;8.60;5.03;;;;;;;10.62;95.84;99800.00;6272336;28;20045;-72
2023/04/30 05:03:09;;;;;;;8.77;5.13;;;;;;;10.84;95.24;99801.22;6270822;28;20408;-71
2023/04/30 05:06:12;;;;;;;8.20;5.00;;;;;;;10.78;96.62;99797.25;6272351;28;20048;-71
2023/04/30 05:09:14;;;;;;;9.35;5.32;;;;;;;10.93;94.54;99805.00;6271966;28;20146;-71
2023/04/30 05:12:15;;;;;;;11.20;4.97;;;;;;;11.06;94.68;99805.88;6270854;28;20056;-71
2023/04/30 05:15:16;;;;;;;8.63;5.13;;;;;;;11.18;93.76;99806.78;6270648;28;20052;-71
2023/04/30 05:18:17;;;;;;;8.75;5.50;;;;;;;11.24;93.32;99809.84;6270934;28;20485;-71
2023/04/30 05:21:17;;;;;;;9.95;5.25;;;;;;;11.34;93.91;99817.88;6270536;28;20132;-71
2023/04/30 05:24:18;;;;;;;10.13;5.70;;;;;;;11.46;93.45;99819.66;6271964;28;20048;-71
2023/04/30 05:27:21;;;;;;;11.27;6.15;;;;;;;11.53;90.46;99814.88;6270625;28;20076;-71
2023/04/30 05:30:22;;;;;;;9.82;5.78;;;;;;;11.72;90.94;99816.22;6271555;28;20057;-71
2023/04/30 05:33:23;;;;;;;10.60;4.80;;;;;;;11.83;90.58;99826.72;6271692;28;20416;-71
2023/04/30 05:36:27;;;;;;;8.18;5.60;;;;;;;11.86;88.56;99818.66;6271498;28;20053;-70
2023/04/30 05:39:28;;;;;;;13.38;6.05;;;;;;;12.02;88.97;99818.47;6268766;28;20081;-70
2023/04/30 05:42:31;;;;;;;8.90;5.20;;;;;;;12.13;88.01;99813.31;6263141;28;20451;-71
2023/04/30 05:45:32;;;;;;;10.65;5.60;;;;;;;12.26;87.63;99821.94;6269924;28;20053;-71
2023/04/30 05:48:35;;;;;;;10.77;5.28;;;;;;;12.27;87.23;99821.03;6265561;28;20045;-71
2023/04/30 05:51:36;;;;;;;8.95;5.13;;;;;;;12.54;87.20;99819.13;6263688;28;20045;-71
2023/04/30 05:54:37;;;;;;;9.00;5.22;;;;;;;12.66;85.03;99826.06;6263126;28;20051;-75
2023/04/30 05:57:38;;;;;;;6.00;4.70;;;;;;;12.78;82.60;99829.56;6266977;28;20048;-75
2023/04/30 06:00:39;;;;;;;7.15;4.63;;;;;;;12.93;82.50;99827.59;6260854;28;20478;-71
2023/04/30 06:03:42;;;;;;;11.30;5.28;;;;;;;13.11;79.71;99836.69;6264040;28;20060;-71
2023/04/30 06:06:43;;;;;;;11.13;5.53;;;;;;;13.23;78.03;99834.94;6275053;28;20045;-71
2023/04/30 06:09:45;;;;;;;9.05;4.65;;;;;;;13.44;75.82;99833.34;6275523;28;20044;-71
2023/04/30 06:12:46;;;;;;;9.02;5.18;;;;;;;13.57;74.85;99835.88;6270739;28;20049;-75
2023/04/30 06:15:46;;;;;;;10.05;5.38;;;;;;;13.57;75.36;99830.63;6277476;28;20491;-75
2023/04/30 06:18:47;;;;;;;10.02;4.38;;;;;;;13.73;74.20;99845.16;6271884;28;20479;-70
2023/04/30 06:21:51;;;;;;;7.20;4.57;;;;;;;13.86;74.33;99835.41;6264543;28;20041;-71
2023/04/30 06:24:56;;;;;;;12.98;4.10;;;;;;;14.02;71.31;99841.13;6268332;28;20048;-75
2023/04/30 06:27:56;;;;;;;7.65;4.45;;;;;;;14.15;70.20;99840.97;6275876;28;20049;-75
2023/04/30 06:30:58;;;;;;;8.20;4.47;;;;;;;14.31;70.65;99843.22;6275602;28;20048;-71
2023/04/30 06:33:59;;;;;;;11.43;4.55;;;;;;;14.33;71.31;99851.81;6276217;28;20500;-75
2023/04/30 06:37:02;;;;;;;11.32;5.43;;;;;;;14.57;70.22;99856.06;6267329;28;20053;-71
2023/04/30 06:40:04;;;;;;;7.60;4.63;;;;;;;14.85;69.52;99844.16;6272380;28;20041;-75
2023/04/30 06:43:05;;;;;;;7.45;4.15;;;;;;;14.94;68.65;99851.25;6274406;28;20094;-71
2023/04/30 06:46:06;;;;;;;8.20;4.50;;;;;;;14.91;69.42;99852.34;6273789;28;20485;-70
2023/04/30 06:49:07;;;;;;;7.07;4.63;;;;;;;15.01;67.09;99849.81;6271913;28;20049;-71
2023/04/30 06:52:08;;;;;;;8.18;5.05;;;;;;;15.21;67.45;99853.38;6271339;28;20044;-70
2023/04/30 06:55:10;;;;;;;9.10;4.28;;;;;;;15.20;67.32;99853.53;6273925;28;20048;-70
2023/04/30 06:58:11;;;;;;;;;;;;;;;15.39;67.38;99847.56;6274561;28;20049;-71
2023/04/30 07:01:14;;;;;;;7.38;4.22;;;;;;;15.61;65.71;99855.31;6275072;28;19928;-71
2023/04/30 07:04:15;;;;;;;8.43;4.63;;;;;;;15.92;64.77;99847.44;6274933;28;20394;-71
2023/04/30 07:07:18;;;;;;;5.80;4.05;;;;;;;15.90;64.23;99841.47;6276315;28;20048;-75
2023/04/30 07:10:18;;;;;;;6.95;3.40;;;;;;;16.10;61.20;99844.97;6255038;28;20485;-76
2023/04/30 07:13:19;;;;;;;8.55;3.60;;;;;;;16.46;58.48;99846.19;6250234;28;20053;-76
2023/04/30 07:16:20;;;;;;;7.57;3.05;;;;;;;16.48;56.13;99846.03;6254537;28;20053;-75
2023/04/30 07:19:22;;;;;;;6.57;2.53;;;;;;;16.77;55.70;99843.44;6268720;28;20114;-76
2023/04/30 07:22:23;;;;;;;;;;;;;;;16.87;54.65;99848.75;6275690;28;20049;-76
2023/04/30 07:25:24;;;;;;;4.60;2.92;;;;;;;16.84;54.91;99847.22;6274739;28;20380;-76
2023/04/30 07:28:25;;;;;;;5.32;2.80;;;;;;;17.10;55.18;99844.81;6254446;28;20053;-76
2023/04/30 07:31:26;;;;;;;4.80;3.03;;;;;;;17.02;56.13;99855.22;6249905;28;20045;-75
2023/04/30 07:34:26;;;;;;;8.13;3.58;;;;;;;17.18;53.57;99844.13;6253957;28;20049;-76
2023/04/30 07:37:27;;;;;;;6.10;3.25;;;;;;;17.11;54.32;99846.50;6274445;28;20055;-76
2023/04/30 07:40:29;;;;;;;4.07;2.60;;;;;;;17.49;53.62;99846.56;6273697;28;20413;-76
2023/04/30 07:43:30;;;;;;;4.30;2.95;;;;;;;17.47;53.08;99845.88;6269278;28;20321;-75
2023/04/30 07:46:30;;;;;;;3.83;2.67;;;;;;;17.74;53.98;99842.44;6272672;28;20061;-76
2023/04/30 07:49:31;;;;;;;5.95;2.90;;;;;;;17.71;52.62;99838.28;6274112;28;20049;-76
2023/04/30 07:52:32;;;;;;;4.85;2.88;;;;;;;18.32;50.45;99844.84;6273996;28;20084;-76
2023/04/30 07:55:33;;;;;;;8.43;3.20;;;;;;;18.40;52.70;99856.47;6274240;28;20131;-76
2023/04/30 07:58:33;;;;;;;4.35;2.63;;;;;;;18.56;50.15;99855.81;6268352;28;20049;-76
2023/04/30 08:01:35;;;;;;;4.22;2.50;;;;;;;18.53;52.14;99859.56;6255192;28;20390;-76
2023/04/30 08:04:35;;;;;;;4.95;2.90;;;;;;;18.50;50.51;99858.03;6274870;28;20059;-76
2023/04/30 08:07:36;;;;;;;4.65;2.80;;;;;;;18.56;50.27;99866.38;6274506;28;20053;-71
2023/04/30 08:10:40;;;;;;;8.33;3.30;;;;;;;19.01;50.39;99862.84;6265659;28;20090;-71
2023/04/30 08:13:46;;;;;;;5.10;2.72;;;;;;;19.12;48.61;99860.78;6273115;28;20049;-72
2023/04/30 08:16:46;;;;;;;4.35;2.60;;;;;;;19.19;48.53;99868.94;6271092;28;20055;-71
2023/04/30 08:19:51;;;;;;;5.13;2.70;;;;;;;19.27;48.25;99862.88;6266859;28;20050;-71
2023/04/30 08:22:52;;;;;;;3.85;2.65;;;;;;;19.32;48.75;99865.91;6256388;28;20049;-72
2023/04/30 08:25:53;;;;;;;5.03;2.58;;;;;;;20.10;49.97;99863.19;6266115;28;20080;-72
2023/04/30 08:28:54;;;;;;;3.60;2.47;;;;;;;20.08;46.66;99862.53;6272437;28;20053;-72
2023/04/30 08:31:57;;;;;;;4.07;2.50;;;;;;;20.02;46.91;99867.66;6261392;28;20122;-72
2023/04/30 08:34:58;;;;;;;5.07;2.53;;;;;;;20.34;45.28;99858.97;6246714;28;20490;-72
2023/04/30 08:37:59;;;;;;;6.80;2.70;;;;;;;19.40;47.95;99855.38;6246754;28;20051;-71
2023/04/30 08:41:11;;;;;;;5.30;3.27;;;;;;;19.44;47.73;99851.44;6257974;28;20049;-72
2023/04/30 08:44:13;;;;;;;4.53;2.75;;;;;;;18.98;49.49;99850.75;6252256;28;20053;-71
2023/04/30 08:47:15;;;;;;;4.07;2.47;;;;;;;18.12;51.91;99849.41;6247796;28;20192;-72
2023/04/30 08:50:16;;;;;;;3.03;2.35;;;;;;;18.65;50.12;99862.81;6246232;28;20138;-71
2023/04/30 08:53:20;;;;;;;10.52;2.70;;;;;;;19.41;50.10;99853.56;6246333;28;20061;-71
2023/04/30 08:56:21;;;;;;;3.08;2.22;;;;;;;19.68;48.37;99863.13;6271506;28;20057;-71
2023/04/30 08:59:22;;;;;;;5.67;2.47;;;;;;;20.00;47.76;99849.25;6261055;28;20152;-72
2023/04/30 09:02:23;;;;;;;3.58;2.22;;;;;;;20.20;47.68;99862.22;6247227;28;20116;-72
2023/04/30 09:05:24;;;;;;;4.35;2.42;;;;;;;20.03;47.85;99864.00;6252054;28;20449;-72
2023/04/30 09:08:42;;;;;;;2.37;2.17;;;;;;;20.44;46.99;99856.19;6272039;28;20056;-72
2023/04/30 09:11:43;;;;;;;3.05;2.13;;;;;;;20.66;47.38;99860.91;6271944;28;20052;-72
2023/04/30 09:15:05;;;;;;;10.73;2.30;;;;;;;20.95;46.08;99861.41;6270655;28;20126;-72
2023/04/30 09:18:10;;;;;;;4.32;1.95;;;;;;;21.30;43.79;99860.25;6254311;28;20049;-72
2023/04/30 09:21:11;;;;;;;8.50;2.70;;;;;;;21.70;44.04;99850.56;6245784;28;20100;-72
2023/04/30 09:24:12;;;;;;;4.53;2.50;;;;;;;20.44;45.68;99857.00;6256323;28;20045;-72
2023/04/30 09:27:18;;;;;;;2.88;2.03;;;;;;;19.98;47.98;99863.66;6270413;28;20532;-72
2023/04/30 09:30:31;;;;;;;3.13;1.65;;;;;;;19.56;49.49;99859.94;6260508;28;20045;-72
2023/04/30 09:33:46;;;;;;;5.15;2.05;;;;;;;20.16;47.86;99852.94;6245404;28;20084;-72
2023/04/30 09:36:54;;;;;;;3.53;2.47;;;;;;;21.27;45.51;99852.59;6245680;28;20052;-72
2023/04/30 09:39:55;;;;;;;1.75;1.65;;;;;;;21.88;44.99;99859.13;6256518;28;20058;-72
2023/04/30 09:43:00;;;;;;;2.15;1.75;;;;;;;20.94;45.85;99852.66;6266472;28;20052;-72
2023/04/30 09:46:04;;;;;;;2.35;1.33;;;;;;;20.44;46.48;99849.06;6270066;28;20057;-72
2023/04/30 09:49:10;;;;;;;1.77;1.45;;;;;;;19.75;48.23;99848.31;6271350;28;20470;-77
2023/04/30 09:52:14;;;;;;;1.63;1.25;;;;;;;19.62;48.86;99854.03;6267869;28;20497;-77
2023/04/30 09:55:15;;;;;;;12.73;1.88;;;;;;;19.21;51.32;99850.25;6270600;28;20060;-76
2023/04/30 09:58:20;;;;;;;2.53;1.40;;;;;;;18.74;50.10;99859.28;6271012;28;20049;-77
2023/04/30 10:01:25;;;;;;;2.38;1.23;;;;;;;19.49;49.13;99850.97;6271872;28;20111;-77
2023/04/30 10:04:37;;;;;;;2.20;1.58;;;;;;;20.60;48.75;99850.94;6271748;28;20552;-77
2023/04/30 10:07:39;;;;;;;;;;;;;;;20.89;45.60;99847.81;6272176;28;20049;-77
2023/04/30 10:10:44;;;;;;;1.90;1.30;;;;;;;20.00;48.76;99849.25;6271558;28;20316;-77
2023/04/30 10:13:54;;;;;;;1.10;0.88;;;;;;;19.55;48.94;99842.41;6271552;28;20056;-77
2023/04/30 10:17:07;;;;;;;2.13;1.30;;;;;;;19.51;48.31;99848.97;6270529;28;20053;-76
2023/04/30 10:20:10;;;;;;;4.35;2.90;;;;;;;19.65;49.76;99848.41;6271458;28;20488;-76
2023/04/30 10:23:14;;;;;;;1.27;1.08;;;;;;;19.13;50.55;99846.59;6269803;28;20048;-77
2023/04/30 10:26:15;;;;;;;1.83;1.05;;;;;;;18.91;50.75;99853.19;6270892;28;20056;-76
2023/04/30 10:29:17;;;;;;;1.25;1.00;;;;;;;18.90;51.06;99845.41;6264267;28;20076;-76
2023/04/30 10:32:20;;;;;;;1.15;1.05;;;;;;;18.82;51.26;99847.97;6254334;28;20048;-77
2023/04/30 10:35:28;;;;;;;1.20;0.93;;;;;;;18.80;51.54;99852.56;6247496;28;20459;-76
2023/04/30 10:38:31;;;;;;;1.13;1.02;;;;;;;18.80;51.66;99860.50;6275601;28;20431;-77
2023/04/30 10:41:32;;;;;;;1.73;1.17;;;;;;;19.38;51.82;99859.16;6261933;28;20408;-76
2023/04/30 10:44:35;;;;;;;1.30;1.17;;;;;;;20.15;50.79;99852.13;6257925;28;20053;-76
2023/04/30 10:47:45;;;;;;;1.10;1.00;;;;;;;20.74;47.59;99849.47;6253557;28;20136;-75
2023/04/30 10:50:49;;;;;;;1.95;1.27;;;;;;;20.27;49.52;99845.53;6247308;28;20049;-76
2023/04/30 10:53:51;;;;;;;11.10;1.38;;;;;;;19.81;50.08;99852.13;6250502;28;20056;-77
2023/04/30 10:57:17;;;;;;;2.13;1.10;;;;;;;20.37;47.25;99844.59;6249046;28;20107;-78
2023/04/30 11:00:18;;;;;;;1.15;1.05;;;;;;;20.44;47.00;99849.06;6250301;28;20124;-77
2023/04/30 11:03:21;;;;;;;1.48;1.08;;;;;;;20.73;47.68;99846.00;6282212;28;20563;-75
2023/04/30 11:06:25;;;;;;;1.33;0.98;;;;;;;19.67;49.14;99842.97;6248921;28;20061;-75
2023/04/30 11:09:36;;;;;;;0.70;0.70;;;;;;;19.20;50.11;99844.16;6252291;28;20386;-75
2023/04/30 11:12:40;;;;;;;6.22;1.38;;;;;;;18.88;52.23;99835.00;6272984;28;20516;-77
2023/04/30 11:15:44;;;;;;;1.27;0.88;;;;;;;18.91;51.36;99839.97;6274504;28;20056;-77
2023/04/30 11:18:45;;;;;;;0.82;0.70;;;;;;;19.29;50.74;99840.59;6270906;28;20045;-77
2023/04/30 11:22:04;;;;;;;6.13;1.20;;;;;;;19.35;49.81;99841.75;6263556;28;20079;-75
2023/04/30 11:25:08;;;;;;;0.70;0.70;;;;;;;18.82;50.70;99848.81;6274233;28;20390;-75
2023/04/30 11:28:23;;;;;;;1.80;0.90;;;;;;;18.64;52.09;99847.97;6273198;28;20053;-75
2023/04/30 11:31:32;;;;;;;1.65;1.00;;;;;;;18.82;51.26;99850.59;6273190;28;20060;-74
2023/04/30 11:34:33;;;;;;;2.35;1.40;;;;;;;19.41;49.96;99845.63;6274203;28;20495;-74
2023/04/30 11:37:38;;;;;;;4.73;3.00;;;;;;;19.44;49.39;99843.50;6272946;28;20382;-76
2023/04/30 11:40:40;;;;;;;1.83;1.25;;;;;;;20.57;47.45;99855.69;6272678;28;20136;-77
2023/04/30 11:43:41;;;;;;;2.13;1.08;;;;;;;20.92;45.33;99849.34;6274341;28;20048;-75
2023/04/30 11:46:42;;;;;;;1.65;0.75;;;;;;;21.16;45.80;99848.47;6272791;28;20501;-75
2023/04/30 11:49:42;;;;;;;1.10;1.03;;;;;;;20.76;44.10;99847.50;6273000;28;20531;-75
2023/04/30 11:52:53;;;;;;;1.77;1.10;;;;;;;21.19;44.98;99847.31;6272799;28;20055;-75
2023/04/30 11:55:54;;;;;;;8.68;3.20;;;;;;;22.40;45.47;99839.13;6273955;28;20049;-75
2023/04/30 11:58:55;;;;;;;1.38;0.98;;;;;;;22.51;44.08;99835.28;6272493;28;20469;-75
2023/04/30 12:01:57;;;;;;;0.60;0.60;;;;;;;21.92;42.72;99841.84;6258175;28;20041;-75
2023/04/30 12:04:58;;;;;;;1.00;0.73;;;;;;;21.47;42.21;99832.69;6256828;28;20132;-75
2023/04/30 12:08:11;;;;;;;0.53;0.50;;;;;;;21.44;43.48;99833.03;6260660;28;20049;-75
2023/04/30 12:11:20;;;;;;;1.02;0.80;;;;;;;21.41;42.80;99822.72;6257482;28;20136;-75
2023/04/30 12:14:24;;;;;;;0.93;0.80;;;;;;;21.60;43.90;99834.00;6249027;28;20076;-75
2023/04/30 12:17:32;;;;;;;2.83;0.77;;;;;;;20.96;46.31;99832.09;6246684;28;20056;-75
2023/04/30 12:20:33;;;;;;;1.13;0.93;;;;;;;21.00;47.86;99835.22;6258158;28;20048;-75
2023/04/30 12:23:37;;;;;;;2.03;1.20;;;;;;;20.89;48.21;99834.56;6272440;28;20052;-75
2023/04/30 12:26:39;;;;;;;0.80;0.70;;;;;;;19.45;50.01;99833.72;6273302;28;20146;-75
2023/04/30 12:29:47;;;;;;;1.27;0.80;;;;;;;19.99;51.29;99831.69;6267812;28;20049;-75
2023/04/30 12:32:57;;;;;;;1.20;0.85;;;;;;;20.71;49.20;99826.78;6257497;28;20049;-75
2023/04/30 12:35:58;;;;;;;0.80;0.75;;;;;;;21.07;47.74;99817.66;6262601;28;20049;-75
2023/04/30 12:39:07;;;;;;;0.75;0.75;;;;;;;21.21;46.33;99818.78;6261301;28;20079;-75
2023/04/30 12:42:09;;;;;;;1.58;0.82;;;;;;;21.48;47.53;99820.28;6271152;28;20060;-75
2023/04/30 12:45:10;;;;;;;1.00;0.90;;;;;;;21.56;44.71;99824.72;6272370;28;20044;-73
2023/04/30 12:48:12;;;;;;;1.48;0.70;;;;;;;21.71;44.28;99820.38;6269195;28;20045;-73
2023/04/30 12:51:18;;;;;;;0.90;0.70;;;;;;;21.23;45.56;99801.72;6267215;28;20037;-73
2023/04/30 12:54:27;;;;;;;4.53;2.10;;;;;;;21.31;44.67;99809.66;6269867;28;20128;-73
2023/04/30 12:57:29;;;;;;;0.70;0.70;;;;;;;21.67;42.65;99801.28;6271477;28;20079;-74
2023/04/30 13:00:50;;;;;;;6.35;4.35;;;;;;;21.77;43.21;99806.41;6263642;28;20516;-74
2023/04/30 13:03:52;;;;;;;2.97;1.02;;;;;;;21.77;42.04;99801.09;6246587;28;20053;-74
2023/04/30 13:06:55;;;;;;;1.90;1.70;;;;;;;22.24;41.90;99799.41;6261456;28;20064;-73
2023/04/30 13:09:56;;;;;;;1.98;1.10;;;;;;;22.69;42.05;99795.91;6272178;28;20052;-75
2023/04/30 13:12:57;;;;;;;2.30;0.97;;;;;;;22.70;42.56;99792.25;6270623;28;20127;-72
2023/04/30 13:15:58;;;;;;;1.33;1.10;;;;;;;21.13;44.24;99791.28;6271086;28;20055;-73
2023/04/30 13:18:59;;;;;;;9.82;2.60;;;;;;;21.42;45.06;99795.22;6271016;28;20281;-73
2023/04/30 13:22:03;;;;;;;3.00;0.90;;;;;;;21.96;42.93;99791.03;6271074;28;20045;-72
2023/04/30 13:25:04;;;;;;;3.17;1.20;;;;;;;21.61;45.30;99795.84;6271689;28;20080;-73
2023/04/30 13:28:05;;;;;;;1.90;1.10;;;;;;;21.18;43.48;99804.03;6270827;28;20051;-73
2023/04/30 13:31:08;;;;;;;1.00;0.90;;;;;;;21.46;41.11;99796.56;6271686;28;20306;-73
2023/04/30 13:34:09;;;;;;;1.42;1.27;;;;;;;21.42;41.94;99797.03;6270766;28;20051;-73
2023/04/30 13:37:10;;;;;;;1.07;0.97;;;;;;;21.86;42.21;99799.22;6264414;28;20045;-72
2023/04/30 13:40:11;;;;;;;1.70;1.13;;;;;;;21.96;42.88;99789.22;6245673;28;20065;-73
2023/04/30 13:43:12;;;;;;;0.60;0.60;;;;;;;20.28;47.04;99796.88;6255396;28;20056;-73
2023/04/30 13:46:15;;;;;;;1.20;1.10;;;;;;;20.28;48.28;99804.81;6260902;28;20049;-73
2023/04/30 13:49:16;;;;;;;;;;;;;;;19.57;48.96;99802.56;6257881;28;20049;-75
2023/04/30 13:52:17;;;;;;;2.58;0.80;;;;;;;19.60;49.14;99797.78;6271454;28;19956;-74
2023/04/30 13:55:21;;;;;;;0.70;0.70;;;;;;;19.63;49.15;99805.38;6271695;28;20085;-73
2023/04/30 13:58:22;;;;;;;1.52;0.70;;;;;;;19.72;47.92;99807.09;6271463;28;20166;-72
2023/04/30 14:01:25;;;;;;;1.07;0.60;;;;;;;19.85;46.91;99800.53;6270480;28;20049;-75
2023/04/30 14:04:26;;;;;;;0.85;0.70;;;;;;;19.92;46.71;99790.97;6267185;28;20072;-73
2023/04/30 14:07:27;;;;;;;3.50;2.10;;;;;;;20.72;45.53;99787.84;6263086;28;20543;-73
2023/04/30 14:10:28;;;;;;;7.75;2.10;;;;;;;20.83;45.00;99786.66;6264025;28;20050;-72
2023/04/30 14:13:30;;;;;;;1.17;0.67;;;;;;;21.03;44.64;99789.81;6255628;28;20056;-74
2023/04/30 14:16:30;;;;;;;0.83;0.57;;;;;;;20.91;45.62;99789.31;6259850;28;20049;-72
2023/04/30 14:19:31;;;;;;;0.80;0.80;;;;;;;21.07;44.68;99791.13;6252631;28;20094;-73
2023/04/30 14:22:37;;;;;;;1.53;1.00;;;;;;;20.69;45.27;99789.00;6271333;28;20274;-72